Time;durP1;ratioP1;P1;durP2;ratioP2;P2;SDS_P1;SDS_P2;PMS_P1;PMS_P2;Temp;Humidity;BMP_temperature;BMP_pressure;BME280_temperature;BME280_humidity;BME280_pressure;Samples;Min_cycle;Max_cycle;Signal;HPM_P1;HPM_P2
2021/10/14 00:01:16;;;;;;;9.55;4.43;;;8.40;76.80;;;;;;5072506;28;20094;-79
2021/10/14 00:03:43;;;;;;;11.60;4.30;;;8.30;76.80;;;;;;5071980;28;20056;-79
2021/10/14 00:06:11;;;;;;;10.18;4.65;;;8.40;76.80;;;;;;5072632;28;20509;-79
2021/10/14 00:08:37;;;;;;;8.32;4.50;;;8.40;76.80;;;;;;5073357;28;20139;-79
2021/10/14 00:11:05;;;;;;;8.52;4.18;;;8.30;76.80;;;;;;5072494;28;20044;-79
2021/10/14 00:13:32;;;;;;;6.88;4.38;;;8.30;76.90;;;;;;5072502;28;20629;-79
2021/10/14 00:15:58;;;;;;;7.97;4.43;;;8.30;76.90;;;;;;5072361;28;20078;-79
2021/10/14 00:18:25;;;;;;;7.78;4.30;;;8.30;76.90;;;;;;5072606;28;20049;-79
2021/10/14 00:20:52;;;;;;;8.73;4.47;;;8.30;76.90;;;;;;5072714;28;20048;-79
2021/10/14 00:23:21;;;;;;;8.15;4.53;;;8.30;76.90;;;;;;5071337;28;20135;-79
2021/10/14 00:25:49;;;;;;;7.57;4.70;;;8.30;76.90;;;;;;5071772;28;20052;-79
2021/10/14 00:28:15;;;;;;;6.13;4.10;;;8.20;76.90;;;;;;5072409;28;20095;-79
2021/10/14 00:30:42;;;;;;;7.68;4.25;;;8.20;76.90;;;;;;5072143;28;20504;-79
2021/10/14 00:33:09;;;;;;;10.82;4.60;;;8.20;76.90;;;;;;5072454;28;20037;-78
2021/10/14 00:35:37;;;;;;;7.88;4.55;;;8.20;76.90;;;;;;5072807;28;20084;-79
2021/10/14 00:38:04;;;;;;;7.57;4.68;;;8.20;77.00;;;;;;5072025;28;20041;-79
2021/10/14 00:40:32;;;;;;;7.65;4.45;;;8.20;77.00;;;;;;5071630;28;20052;-79
2021/10/14 00:42:59;;;;;;;8.73;4.10;;;8.20;76.90;;;;;;5071874;28;20052;-79
2021/10/14 00:45:26;;;;;;;7.35;4.70;;;8.10;77.00;;;;;;5071863;28;20044;-79
2021/10/14 00:47:53;;;;;;;9.93;4.65;;;8.10;77.00;;;;;;5071916;28;20566;-79
2021/10/14 00:50:20;;;;;;;8.32;4.57;;;8.10;77.00;;;;;;5072382;28;20052;-79
2021/10/14 00:52:47;;;;;;;10.32;4.80;;;8.10;77.00;;;;;;5071734;28;20463;-79
2021/10/14 00:55:15;;;;;;;8.55;4.47;;;8.10;77.00;;;;;;5071266;28;20154;-79
2021/10/14 00:57:42;;;;;;;8.43;4.57;;;8.10;77.00;;;;;;5071692;28;20528;-79
2021/10/14 01:00:09;;;;;;;6.70;4.22;;;8.10;77.00;;;;;;5071770;28;20105;-79
2021/10/14 01:02:36;;;;;;;9.30;4.45;;;8.10;77.10;;;;;;5072206;28;20048;-79
2021/10/14 01:05:05;;;;;;;8.68;4.35;;;8.00;77.00;;;;;;5071590;28;20044;-79
2021/10/14 01:07:32;;;;;;;9.45;4.63;;;8.00;77.10;;;;;;5071441;28;20044;-79
2021/10/14 01:09:59;;;;;;;8.25;4.53;;;8.00;77.10;;;;;;5071034;28;20044;-79
2021/10/14 01:12:27;;;;;;;8.48;4.43;;;8.00;77.10;;;;;;5071415;28;20436;-79
2021/10/14 01:14:54;;;;;;;6.85;4.30;;;8.00;77.10;;;;;;5070992;28;20505;-79
2021/10/14 01:17:20;;;;;;;9.82;4.60;;;8.00;77.10;;;;;;5070174;28;20052;-79
2021/10/14 01:19:47;;;;;;;9.73;4.80;;;8.00;77.20;;;;;;5071129;28;20044;-79
2021/10/14 01:22:15;;;;;;;8.80;4.32;;;8.00;77.20;;;;;;5071231;28;20048;-79
2021/10/14 01:24:42;;;;;;;7.72;4.18;;;8.00;77.20;;;;;;5070667;28;20474;-79
2021/10/14 01:27:09;;;;;;;8.82;4.38;;;7.90;77.20;;;;;;5071068;28;20512;-78
2021/10/14 01:29:36;;;;;;;7.95;4.60;;;8.00;77.20;;;;;;5067652;28;20056;-79
2021/10/14 01:32:04;;;;;;;6.72;4.35;;;7.90;77.30;;;;;;5070991;28;20052;-79
2021/10/14 01:34:32;;;;;;;8.63;4.90;;;7.90;77.30;;;;;;5071050;28;20098;-78
2021/10/14 01:36:59;;;;;;;12.05;4.40;;;7.90;77.30;;;;;;5070897;28;20048;-79
2021/10/14 01:39:26;;;;;;;7.03;4.05;;;7.90;77.30;;;;;;5070703;28;20098;-78
2021/10/14 01:41:53;;;;;;;8.98;4.75;;;7.90;77.30;;;;;;5071073;28;20052;-78
2021/10/14 01:44:20;;;;;;;8.70;4.55;;;7.90;77.30;;;;;;5069578;28;20665;-78
2021/10/14 01:46:47;;;;;;;7.55;4.25;;;7.90;77.30;;;;;;5070619;28;20056;-78
2021/10/14 01:49:14;;;;;;;10.50;4.32;;;7.90;77.40;;;;;;5070723;28;20049;-79
2021/10/14 01:51:40;;;;;;;9.15;4.50;;;7.80;77.30;;;;;;5070343;28;20094;-78
2021/10/14 01:54:07;;;;;;;6.75;4.40;;;7.80;77.30;;;;;;5054816;28;20089;-79
2021/10/14 01:56:34;;;;;;;9.02;4.13;;;7.80;77.40;;;;;;5066837;28;20106;-78
2021/10/14 01:59:01;;;;;;;7.75;4.28;;;7.80;77.40;;;;;;5070575;28;20056;-78
2021/10/14 02:01:28;;;;;;;7.50;3.72;;;7.80;77.40;;;;;;5070459;28;20089;-78
2021/10/14 02:03:55;;;;;;;9.02;4.30;;;7.80;77.40;;;;;;5070486;28;20055;-78
2021/10/14 02:06:22;;;;;;;7.70;3.90;;;7.80;77.40;;;;;;5070060;28;20393;-78
2021/10/14 02:08:49;;;;;;;9.40;4.30;;;7.70;77.40;;;;;;5070605;28;20052;-78
2021/10/14 02:11:16;;;;;;;7.53;3.83;;;7.70;77.50;;;;;;5070937;28;20059;-78
2021/10/14 02:13:42;;;;;;;7.88;4.00;;;7.70;77.50;;;;;;5070334;28;20044;-78
2021/10/14 02:16:09;;;;;;;9.07;4.30;;;7.70;77.50;;;;;;5070320;28;20060;-78
2021/10/14 02:18:36;;;;;;;7.93;3.97;;;7.70;77.50;;;;;;5070422;28;20048;-78
2021/10/14 02:21:04;;;;;;;8.35;4.28;;;7.70;77.50;;;;;;5069997;28;20044;-78
2021/10/14 02:23:31;;;;;;;7.55;3.90;;;7.70;77.50;;;;;;5070882;28;20052;-78
2021/10/14 02:25:57;;;;;;;6.82;3.53;;;7.70;77.50;;;;;;5069954;28;20106;-78
2021/10/14 02:28:25;;;;;;;7.70;3.60;;;7.70;77.50;;;;;;5069892;28;20041;-78
2021/10/14 02:30:52;;;;;;;8.90;4.05;;;7.60;77.50;;;;;;5070100;28;20106;-79
2021/10/14 02:33:19;;;;;;;5.95;3.60;;;7.60;77.40;;;;;;5070288;28;20501;-78
2021/10/14 02:35:46;;;;;;;10.45;3.78;;;7.60;77.40;;;;;;5069983;28;20045;-78
2021/10/14 02:38:13;;;;;;;6.15;3.58;;;7.60;77.40;;;;;;5070666;28;20113;-79
2021/10/14 02:40:40;;;;;;;7.13;4.10;;;7.60;77.40;;;;;;5070084;28;20109;-79
2021/10/14 02:43:07;;;;;;;9.40;4.00;;;7.60;77.40;;;;;;5070210;28;20090;-78
2021/10/14 02:45:34;;;;;;;10.10;4.00;;;7.60;77.40;;;;;;5070072;28;20456;-78
2021/10/14 02:48:00;;;;;;;6.22;3.58;;;7.50;77.40;;;;;;5070202;28;20068;-79
2021/10/14 02:50:27;;;;;;;8.73;3.47;;;7.50;77.40;;;;;;5070597;28;20444;-78
2021/10/14 02:52:54;;;;;;;7.32;3.83;;;7.50;77.40;;;;;;5069984;28;20701;-79
2021/10/14 02:55:21;;;;;;;7.15;3.63;;;7.50;77.40;;;;;;5069817;28;20041;-78
2021/10/14 02:57:48;;;;;;;5.45;3.28;;;7.50;77.40;;;;;;5070299;28;20094;-78
2021/10/14 03:00:15;;;;;;;6.40;3.30;;;7.50;77.40;;;;;;5070109;28;20094;-78
2021/10/14 03:02:42;;;;;;;7.30;3.72;;;7.40;77.40;;;;;;5070163;28;20053;-78
2021/10/14 03:05:09;;;;;;;6.38;3.55;;;7.50;77.40;;;;;;5069887;28;20041;-78
2021/10/14 03:07:36;;;;;;;7.75;3.75;;;7.40;77.40;;;;;;5069772;28;20095;-78
2021/10/14 03:10:06;;;;;;;6.32;3.45;;;7.40;77.40;;;;;;5069777;28;20051;-79
2021/10/14 03:12:33;;;;;;;5.32;3.17;;;7.40;77.40;;;;;;5069983;28;20078;-78
2021/10/14 03:15:01;;;;;;;7.68;3.92;;;7.40;77.50;;;;;;5069771;28;20128;-79
2021/10/14 03:17:28;;;;;;;7.90;3.92;;;7.40;77.50;;;;;;5070358;28;20052;-78
2021/10/14 03:19:54;;;;;;;9.27;4.10;;;7.40;77.50;;;;;;5069258;28;20106;-78
2021/10/14 03:22:21;;;;;;;6.32;3.63;;;7.40;77.50;;;;;;5069719;28;20098;-78
2021/10/14 03:24:49;;;;;;;7.07;4.20;;;7.40;77.60;;;;;;5069533;28;20049;-79
2021/10/14 03:27:16;;;;;;;9.38;4.10;;;7.40;77.60;;;;;;5069656;28;20044;-78
2021/10/14 03:29:43;;;;;;;7.85;4.05;;;7.40;77.70;;;;;;5070061;28;20049;-79
2021/10/14 03:32:10;;;;;;;7.97;4.00;;;7.40;77.70;;;;;;5069934;28;20048;-78
2021/10/14 03:34:37;;;;;;;9.40;4.20;;;7.30;77.70;;;;;;5069157;28;20094;-79
2021/10/14 03:37:03;;;;;;;8.52;4.32;;;7.30;77.80;;;;;;5069456;28;20562;-78
2021/10/14 03:39:30;;;;;;;10.77;4.80;;;7.40;77.90;;;;;;5071366;28;20090;-79
2021/10/14 03:41:57;;;;;;;8.18;4.50;;;7.30;78.00;;;;;;5073170;28;20106;-79
2021/10/14 03:44:24;;;;;;;9.75;4.43;;;7.30;78.00;;;;;;5073630;28;20483;-78
2021/10/14 03:46:51;;;;;;;8.98;4.47;;;7.30;78.10;;;;;;5072867;28;20049;-78
2021/10/14 03:49:18;;;;;;;12.45;4.95;;;7.30;78.20;;;;;;5072609;28;20080;-79
2021/10/14 03:51:45;;;;;;;9.52;4.75;;;7.30;78.30;;;;;;5072922;28;20078;-79
2021/10/14 03:54:12;;;;;;;8.93;4.72;;;7.30;78.40;;;;;;5072900;28;20082;-79
2021/10/14 03:56:39;;;;;;;9.45;5.05;;;7.30;78.50;;;;;;5073233;28;20052;-78
2021/10/14 03:59:06;;;;;;;8.93;5.05;;;7.30;78.50;;;;;;5072868;28;20048;-79
2021/10/14 04:01:33;;;;;;;10.45;4.93;;;7.30;78.60;;;;;;5072634;28;20056;-78
2021/10/14 04:04:00;;;;;;;8.77;5.10;;;7.30;78.70;;;;;;5072414;28;20080;-78
2021/10/14 04:06:27;;;;;;;8.68;4.95;;;7.30;78.80;;;;;;5072688;28;20460;-79
2021/10/14 04:08:53;;;;;;;9.73;5.20;;;7.30;78.80;;;;;;5072700;28;20451;-79
2021/10/14 04:11:20;;;;;;;10.63;5.57;;;7.30;78.90;;;;;;5073278;28;20049;-79
2021/10/14 04:13:47;;;;;;;8.07;4.93;;;7.30;78.90;;;;;;5072620;28;20094;-79
2021/10/14 04:16:14;;;;;;;11.57;4.95;;;7.30;79.00;;;;;;5072494;28;20044;-79
2021/10/14 04:18:41;;;;;;;10.38;5.30;;;7.30;79.00;;;;;;5072115;28;20490;-79
2021/10/14 04:21:08;;;;;;;10.35;5.68;;;7.30;79.10;;;;;;5072590;28;20098;-79
2021/10/14 04:23:35;;;;;;;9.82;5.80;;;7.30;79.20;;;;;;5073124;28;20045;-79
2021/10/14 04:26:02;;;;;;;8.88;5.22;;;7.30;79.20;;;;;;5071985;28;20105;-79
2021/10/14 04:28:29;;;;;;;8.77;5.10;;;7.30;79.30;;;;;;5072336;28;20052;-78
2021/10/14 04:30:56;;;;;;;13.23;6.15;;;7.30;79.30;;;;;;5072373;28;20106;-79
2021/10/14 04:33:23;;;;;;;8.20;5.40;;;7.30;79.30;;;;;;5071862;28;20084;-79
2021/10/14 04:35:50;;;;;;;8.90;5.72;;;7.30;79.40;;;;;;5072295;28;20100;-78
2021/10/14 04:38:17;;;;;;;12.80;6.38;;;7.30;79.40;;;;;;5072707;28;20475;-79
2021/10/14 04:40:44;;;;;;;9.95;6.07;;;7.30;79.50;;;;;;5070979;28;20049;-79
2021/10/14 04:43:11;;;;;;;9.65;5.72;;;7.30;79.50;;;;;;5071939;28;20052;-78
2021/10/14 04:45:38;;;;;;;13.23;6.13;;;7.30;79.50;;;;;;5071729;28;20041;-79
2021/10/14 04:48:05;;;;;;;10.43;6.22;;;7.30;79.60;;;;;;5072118;28;20778;-79
2021/10/14 04:50:32;;;;;;;12.15;5.90;;;7.30;79.60;;;;;;5072425;28;20040;-78
2021/10/14 04:52:59;;;;;;;12.88;5.68;;;7.30;79.60;;;;;;5072086;28;20063;-79
2021/10/14 04:55:26;;;;;;;11.85;5.88;;;7.30;79.70;;;;;;5071709;28;20098;-79
2021/10/14 04:57:53;;;;;;;11.18;6.10;;;7.30;79.70;;;;;;5071829;28;20053;-78
2021/10/14 05:00:19;;;;;;;11.98;6.45;;;7.30;79.70;;;;;;5071655;28;20044;-79
2021/10/14 05:02:46;;;;;;;9.90;5.57;;;7.30;79.70;;;;;;5071710;28;20501;-78
2021/10/14 05:05:13;;;;;;;10.18;6.40;;;7.30;79.80;;;;;;5072090;28;20052;-79
2021/10/14 05:07:40;;;;;;;11.20;6.28;;;7.30;79.80;;;;;;5071513;28;20101;-79
2021/10/14 05:10:08;;;;;;;10.70;5.47;;;7.30;79.80;;;;;;5071412;28;20509;-79
2021/10/14 05:12:35;;;;;;;11.82;6.22;;;7.30;79.90;;;;;;5071424;28;20045;-79
2021/10/14 05:15:09;;;;;;;11.60;6.65;;;7.30;79.90;;;;;;5071520;28;20089;-79
2021/10/14 05:17:36;;;;;;;10.05;6.00;;;7.30;80.00;;;;;;5067982;28;20630;-79
2021/10/14 05:20:05;;;;;;;12.35;6.30;;;7.30;80.00;;;;;;5071210;28;20501;-79
2021/10/14 05:22:32;;;;;;;13.40;6.90;;;7.30;80.00;;;;;;5071188;28;20098;-79
2021/10/14 05:24:59;;;;;;;12.63;6.60;;;7.30;80.10;;;;;;5070974;28;20064;-79
2021/10/14 05:27:26;;;;;;;13.93;7.15;;;7.30;80.10;;;;;;5071196;28;20086;-79
2021/10/14 05:29:53;;;;;;;10.25;6.20;;;7.30;80.20;;;;;;5070889;28;20106;-79
2021/10/14 05:32:20;;;;;;;12.77;6.13;;;7.30;80.20;;;;;;5071737;28;20094;-79
2021/10/14 05:34:47;;;;;;;11.63;6.00;;;7.30;80.20;;;;;;5071057;28;20044;-79
2021/10/14 05:37:13;;;;;;;12.10;6.65;;;7.30;80.30;;;;;;5070939;28;20122;-79
2021/10/14 05:39:40;;;;;;;11.25;6.00;;;7.30;80.30;;;;;;5071076;28;20040;-79
2021/10/14 05:42:07;;;;;;;11.48;6.40;;;7.30;80.40;;;;;;5055187;28;20049;-79
2021/10/14 05:44:34;;;;;;;11.20;5.57;;;7.30;80.40;;;;;;5071148;28;20044;-78
2021/10/14 05:47:01;;;;;;;14.35;6.22;;;7.30;80.40;;;;;;5071005;28;20044;-78
2021/10/14 05:49:28;;;;;;;10.40;6.25;;;7.40;80.40;;;;;;5070746;28;20463;-79
2021/10/14 05:51:54;;;;;;;12.43;6.28;;;7.40;80.50;;;;;;5070508;28;20074;-79
2021/10/14 05:54:21;;;;;;;11.50;5.40;;;7.40;80.50;;;;;;5070869;28;20098;-79
2021/10/14 05:56:48;;;;;;;13.93;6.43;;;7.40;80.50;;;;;;5070763;28;20189;-79
2021/10/14 05:59:15;;;;;;;12.38;5.63;;;7.40;80.50;;;;;;5070819;28;20460;-79
2021/10/14 06:01:42;;;;;;;8.52;4.95;;;7.40;80.50;;;;;;5070094;28;20045;-79
2021/10/14 06:04:09;;;;;;;8.48;4.97;;;7.40;80.60;;;;;;5070557;28;20461;-78
2021/10/14 06:06:36;;;;;;;9.43;5.20;;;7.40;80.60;;;;;;5070401;28;20040;-79
2021/10/14 06:09:03;;;;;;;11.95;5.25;;;7.40;80.60;;;;;;5070534;28;20052;-79
2021/10/14 06:11:30;;;;;;;9.48;4.88;;;7.40;80.60;;;;;;5070151;28;20044;-79
2021/10/14 06:13:57;;;;;;;14.07;5.40;;;7.40;80.60;;;;;;5072505;28;20055;-79
2021/10/14 06:16:23;;;;;;;10.75;5.13;;;7.40;80.70;;;;;;5070825;28;20049;-79
2021/10/14 06:18:51;;;;;;;8.75;4.68;;;7.40;80.70;;;;;;5070504;28;20101;-79
2021/10/14 06:21:18;;;;;;;10.20;5.35;;;7.40;80.70;;;;;;5073757;28;20045;-79
2021/10/14 06:23:45;;;;;;;8.30;4.68;;;7.40;80.70;;;;;;5072710;28;20074;-79
2021/10/14 06:26:12;;;;;;;8.52;4.97;;;7.40;80.80;;;;;;5073636;28;20060;-79
2021/10/14 06:28:39;;;;;;;11.55;5.28;;;7.40;80.80;;;;;;5071676;28;20094;-79
2021/10/14 06:31:06;;;;;;;10.32;4.78;;;7.40;80.80;;;;;;5071772;28;20094;-79
2021/10/14 06:33:33;;;;;;;9.38;4.95;;;7.40;80.80;;;;;;5071047;28;20131;-79
2021/10/14 06:36:00;;;;;;;10.02;5.22;;;7.50;80.90;;;;;;5069486;28;20037;-79
2021/10/14 06:38:27;;;;;;;9.90;5.25;;;7.50;80.90;;;;;;5074826;28;20569;-79
2021/10/14 06:40:54;;;;;;;8.82;4.75;;;7.50;80.90;;;;;;5071883;28;20508;-79
2021/10/14 06:43:21;;;;;;;12.10;4.75;;;7.50;80.90;;;;;;5071652;28;20101;-79
2021/10/14 06:45:49;;;;;;;10.95;4.72;;;7.50;81.00;;;;;;5071485;28;20048;-79
2021/10/14 06:48:16;;;;;;;8.98;4.22;;;7.50;81.00;;;;;;5068674;28;20046;-79
2021/10/14 06:50:43;;;;;;;10.50;4.72;;;7.50;81.00;;;;;;5073954;28;20119;-79
2021/10/14 06:53:11;;;;;;;9.85;4.70;;;7.60;81.00;;;;;;5072285;28;20070;-79
2021/10/14 06:55:39;;;;;;;9.18;4.47;;;7.60;81.00;;;;;;5071731;28;20497;-79
2021/10/14 06:58:06;;;;;;;10.10;4.97;;;7.60;81.10;;;;;;5071405;28;20052;-79
2021/10/14 07:00:33;;;;;;;8.70;4.57;;;7.60;81.20;;;;;;5070343;28;20044;-79
2021/10/14 07:03:00;;;;;;;10.60;4.53;;;7.70;81.20;;;;;;5069214;28;20053;-79
2021/10/14 07:05:28;;;;;;;9.75;4.95;;;7.70;81.20;;;;;;5075113;28;20542;-79
2021/10/14 07:07:55;;;;;;;10.57;5.22;;;7.70;81.30;;;;;;5071304;28;20048;-78
2021/10/14 07:10:23;;;;;;;8.85;4.40;;;7.70;81.30;;;;;;5071534;28;20049;-79
2021/10/14 07:12:52;;;;;;;11.38;4.55;;;7.80;81.40;;;;;;5070800;28;20585;-79
2021/10/14 07:15:19;;;;;;;9.10;4.63;;;7.80;81.40;;;;;;5071488;28;20079;-78
2021/10/14 07:17:46;;;;;;;10.38;4.70;;;7.90;81.50;;;;;;5076323;28;20052;-80
2021/10/14 07:20:13;;;;;;;12.10;4.70;;;7.90;81.50;;;;;;5077114;28;20052;-79
2021/10/14 07:22:40;;;;;;;10.85;5.00;;;7.90;81.50;;;;;;5074993;28;20070;-79
2021/10/14 07:25:08;;;;;;;10.63;4.68;;;7.90;81.60;;;;;;5074762;28;20459;-79
2021/10/14 07:27:35;;;;;;;7.38;4.38;;;8.00;81.60;;;;;;5074618;28;20054;-80
2021/10/14 07:30:07;;;;;;;9.20;4.18;;;8.00;81.60;;;;;;5072597;28;20074;-80
2021/10/14 07:32:34;;;;;;;11.02;4.47;;;8.00;81.70;;;;;;5086498;28;20060;-79
2021/10/14 07:35:04;;;;;;;10.70;4.05;;;8.10;81.70;;;;;;5075260;28;20044;-79
2021/10/14 07:37:31;;;;;;;6.72;3.47;;;8.10;81.70;;;;;;5074795;28;20048;-79
2021/10/14 07:39:58;;;;;;;6.40;3.78;;;8.20;81.70;;;;;;5074549;28;20040;-79
2021/10/14 07:42:26;;;;;;;8.48;3.58;;;8.20;81.70;;;;;;5073172;28;20048;-79
2021/10/14 07:44:53;;;;;;;7.03;3.75;;;8.20;81.70;;;;;;5074155;28;20462;-79
2021/10/14 07:47:20;;;;;;;9.07;4.43;;;8.30;81.70;;;;;;5077178;28;20520;-79
2021/10/14 07:49:47;;;;;;;8.27;4.10;;;8.30;81.80;;;;;;5074910;28;20098;-79
2021/10/14 07:52:14;;;;;;;11.63;3.75;;;8.40;81.80;;;;;;5074593;28;20048;-79
2021/10/14 07:54:40;;;;;;;10.57;4.20;;;8.40;81.80;;;;;;5074551;28;20352;-81
2021/10/14 07:57:07;;;;;;;9.10;4.30;;;8.40;81.80;;;;;;5054920;28;20049;-80
2021/10/14 07:59:34;;;;;;;7.35;3.63;;;8.40;81.80;;;;;;5085930;28;20052;-80
2021/10/14 08:02:01;;;;;;;7.40;3.40;;;8.50;81.80;;;;;;5074489;28;20094;-80
2021/10/14 08:04:28;;;;;;;9.88;3.80;;;8.60;81.80;;;;;;5074573;28;20051;-80
2021/10/14 08:06:55;;;;;;;8.68;3.63;;;8.60;81.80;;;;;;5073796;28;20500;-80
2021/10/14 08:09:22;;;;;;;11.93;3.78;;;8.70;81.80;;;;;;5073559;28;20047;-80
2021/10/14 08:11:49;;;;;;;8.68;3.30;;;8.70;81.80;;;;;;5074285;28;20052;-79
2021/10/14 08:14:16;;;;;;;8.73;3.13;;;8.70;81.80;;;;;;5077979;28;20135;-80
2021/10/14 08:16:43;;;;;;;8.43;3.47;;;8.80;81.80;;;;;;5074372;28;20036;-79
2021/10/14 08:19:10;;;;;;;12.25;3.65;;;8.90;81.90;;;;;;5074541;28;20040;-80
2021/10/14 08:21:37;;;;;;;6.93;3.38;;;8.90;81.90;;;;;;5073548;28;20451;-80
2021/10/14 08:24:04;;;;;;;8.52;3.72;;;8.90;82.00;;;;;;5070451;28;20045;-80
2021/10/14 08:26:31;;;;;;;5.57;3.13;;;9.00;82.00;;;;;;5077540;28;20517;-80
2021/10/14 08:28:58;;;;;;;8.88;4.10;;;9.10;82.00;;;;;;5073708;28;20052;-82
2021/10/14 08:31:25;;;;;;;7.10;3.88;;;9.10;82.00;;;;;;5074686;28;20040;-81
2021/10/14 08:33:52;;;;;;;9.93;4.13;;;9.20;82.10;;;;;;5074344;28;20105;-79
2021/10/14 08:36:19;;;;;;;10.10;3.75;;;9.30;82.10;;;;;;5070842;28;20045;-79
2021/10/14 08:38:49;;;;;;;6.93;3.70;;;9.30;82.10;;;;;;5074289;28;20443;-79
2021/10/14 08:41:18;;;;;;;12.45;3.50;;;9.40;82.10;;;;;;5075773;28;20155;-79
2021/10/14 08:43:46;;;;;;;8.25;3.80;;;9.50;82.10;;;;;;5073563;28;20048;-80
2021/10/14 08:46:14;;;;;;;7.68;3.40;;;9.50;82.00;;;;;;5073639;28;20471;-80
2021/10/14 08:48:42;;;;;;;7.53;3.20;;;9.60;82.00;;;;;;5073933;28;20044;-79
2021/10/14 08:51:09;;;;;;;8.38;3.17;;;9.70;81.90;;;;;;5069308;28;20086;-79
2021/10/14 08:53:37;;;;;;;10.23;4.03;;;9.80;81.90;;;;;;5077539;28;20048;-80
2021/10/14 08:56:05;;;;;;;8.40;3.67;;;9.90;81.90;;;;;;5073166;28;20139;-79
2021/10/14 08:58:32;;;;;;;7.00;4.00;;;9.90;81.80;;;;;;5073176;28;20501;-79
2021/10/14 09:01:14;;;;;;;11.82;3.88;;;10.10;81.80;;;;;;5073580;28;20041;-80
2021/10/14 09:03:47;;;;;;;7.75;3.28;;;10.20;81.70;;;;;;5073539;28;20068;-79
2021/10/14 09:06:14;;;;;;;11.05;3.92;;;10.30;81.60;;;;;;5069336;28;20045;-80
2021/10/14 09:08:43;;;;;;;10.32;4.05;;;10.40;81.50;;;;;;5075147;28;20060;-80
2021/10/14 09:11:30;;;;;;;13.95;4.10;;;10.40;81.40;;;;;;5075030;28;20074;-78
2021/10/14 09:14:01;;;;;;;7.68;3.63;;;10.60;81.30;;;;;;5072218;28;20048;-79
2021/10/14 09:16:37;;;;;;;9.07;3.97;;;10.70;81.20;;;;;;5073404;28;20090;-79
2021/10/14 09:19:21;;;;;;;9.80;4.20;;;10.90;81.10;;;;;;5072918;28;20041;-80
2021/10/14 09:21:55;;;;;;;8.40;3.53;;;10.90;81.00;;;;;;5072888;28;20052;-80
2021/10/14 09:24:37;;;;;;;11.57;4.00;;;11.00;80.90;;;;;;5070706;28;20095;-80
2021/10/14 09:27:12;;;;;;;9.20;3.53;;;11.20;80.80;;;;;;5069281;28;20049;-79
2021/10/14 09:29:40;;;;;;;8.13;3.80;;;11.30;80.60;;;;;;5085156;28;20455;-79
2021/10/14 09:32:14;;;;;;;9.93;3.58;;;11.40;80.40;;;;;;5073123;28;20067;-79
2021/10/14 09:34:49;;;;;;;7.00;2.67;;;11.60;80.20;;;;;;5072403;28;20402;-80
2021/10/14 09:37:16;;;;;;;7.07;2.78;;;11.80;79.90;;;;;;5071973;28;20076;-80
2021/10/14 09:39:56;;;;;;;7.55;2.70;;;11.90;79.60;;;;;;5072976;28;20097;-79
2021/10/14 09:42:52;;;;;;;7.80;2.60;;;12.10;79.20;;;;;;5070155;28;20390;-80
2021/10/14 09:45:23;;;;;;;6.10;2.70;;;12.20;78.80;;;;;;5055293;28;20049;-80
2021/10/14 09:48:11;;;;;;;12.95;2.92;;;12.40;78.40;;;;;;5072800;28;20587;-80
2021/10/14 09:50:45;;;;;;;7.28;2.38;;;12.50;78.00;;;;;;5083781;28;20051;-79
2021/10/14 09:53:19;;;;;;;7.20;3.13;;;12.70;77.60;;;;;;5075566;28;20044;-80
2021/10/14 09:55:48;;;;;;;10.38;2.88;;;12.90;77.30;;;;;;5072408;28;20059;-80
2021/10/14 09:58:16;;;;;;;7.05;2.30;;;13.00;76.90;;;;;;5072201;28;20045;-80
2021/10/14 10:00:45;;;;;;;7.63;2.35;;;13.20;76.50;;;;;;5072357;28;20135;-80
2021/10/14 10:03:27;;;;;;;7.15;2.20;;;13.40;76.10;;;;;;5070144;28;20045;-80
2021/10/14 10:05:55;;;;;;;12.63;2.40;;;13.50;75.50;;;;;;5071685;28;20048;-79
2021/10/14 10:08:38;;;;;;;7.25;1.88;;;13.70;75.10;;;;;;5075052;28;20105;-80
2021/10/14 10:11:12;;;;;;;6.68;2.03;;;13.90;74.60;;;;;;5071785;28;20122;-80
2021/10/14 10:13:54;;;;;;;7.88;2.05;;;14.00;74.10;;;;;;5072271;28;20040;-80
2021/10/14 10:16:26;;;;;;;7.55;2.85;;;14.20;73.50;;;;;;5072681;28;20044;-80
2021/10/14 10:19:01;;;;;;;9.48;2.28;;;14.40;73.00;;;;;;5071574;28;20497;-81
2021/10/14 10:21:30;;;;;;;12.30;2.42;;;14.50;72.50;;;;;;5070154;28;20098;-81
2021/10/14 10:24:01;;;;;;;6.82;2.80;;;14.60;72.00;;;;;;5070705;28;20459;-80
2021/10/14 10:26:34;;;;;;;5.13;2.03;;;14.80;71.60;;;;;;5075141;28;20052;-80
2021/10/14 10:29:16;;;;;;;7.93;2.90;;;14.90;71.10;;;;;;5072048;28;20048;-80
2021/10/14 10:31:46;;;;;;;8.38;2.47;;;15.00;70.70;;;;;;5072236;28;20040;-81
2021/10/14 10:34:43;;;;;;;7.80;2.40;;;15.20;70.40;;;;;;5071482;28;20048;-81
2021/10/14 10:37:27;;;;;;;6.95;2.30;;;15.30;69.90;;;;;;5073726;28;20044;-80
2021/10/14 10:39:58;;;;;;;7.15;2.40;;;15.40;69.50;;;;;;5071946;28;20082;-81
2021/10/14 10:42:38;;;;;;;6.38;2.58;;;15.50;69.10;;;;;;5069407;28;20513;-80
2021/10/14 10:45:15;;;;;;;9.80;2.67;;;15.60;68.80;;;;;;5068490;28;20079;-80
2021/10/14 10:48:08;;;;;;;9.63;2.92;;;15.70;68.40;;;;;;5084327;28;20094;-80
2021/10/14 10:50:45;;;;;;;6.03;2.30;;;15.90;68.00;;;;;;5087541;28;20052;-80
2021/10/14 10:53:17;;;;;;;5.40;2.00;;;15.90;67.50;;;;;;5079196;28;20041;-81
2021/10/14 10:55:51;;;;;;;5.57;1.77;;;16.00;67.10;;;;;;5075893;28;20106;-82
2021/10/14 10:58:44;;;;;;;7.22;1.90;;;16.10;66.80;;;;;;5076019;28;20044;-81
2021/10/14 11:01:12;;;;;;;9.88;2.13;;;16.10;66.40;;;;;;5075833;28;20051;-82
2021/10/14 11:03:52;;;;;;;8.65;1.95;;;16.20;66.10;;;;;;5074942;28;20040;-81
2021/10/14 11:06:20;;;;;;;5.95;1.60;;;16.20;65.70;;;;;;5058522;28;20456;-81
2021/10/14 11:08:47;;;;;;;7.03;1.92;;;16.30;65.50;;;;;;5087127;28;20044;-81
2021/10/14 11:11:18;;;;;;;4.35;1.55;;;16.30;65.20;;;;;;5077105;28;20040;-82
2021/10/14 11:13:51;;;;;;;7.95;1.75;;;16.40;65.00;;;;;;5073055;28;20467;-80
2021/10/14 11:16:22;;;;;;;3.40;1.20;;;16.40;64.70;;;;;;5075862;28;20070;-81
2021/10/14 11:18:52;;;;;;;4.57;1.20;;;16.40;64.40;;;;;;5074621;28;20051;-82
2021/10/14 11:21:36;;;;;;;5.07;1.40;;;16.40;64.00;;;;;;5074854;28;20044;-81
2021/10/14 11:24:04;;;;;;;6.28;1.52;;;16.40;63.70;;;;;;5072463;28;20053;-80
2021/10/14 11:26:36;;;;;;;7.28;1.80;;;16.50;63.50;;;;;;5074231;28;20507;-81
2021/10/14 11:29:11;;;;;;;5.47;1.48;;;16.50;63.40;;;;;;5075223;28;20052;-80
2021/10/14 11:31:56;;;;;;;4.65;1.52;;;16.60;63.30;;;;;;5073773;28;20048;-80
2021/10/14 11:34:25;;;;;;;6.38;1.63;;;16.60;63.10;;;;;;5075176;28;20186;-82
2021/10/14 11:36:55;;;;;;;4.20;1.30;;;16.60;63.10;;;;;;5075036;28;20486;-82
2021/10/14 11:39:32;;;;;;;6.90;1.40;;;16.60;63.00;;;;;;5072236;28;20037;-82
2021/10/14 11:42:01;;;;;;;5.57;1.33;;;16.60;62.80;;;;;;5072709;28;20060;-81
2021/10/14 11:44:33;;;;;;;4.72;1.30;;;16.60;62.80;;;;;;5078478;28;20052;-82
2021/10/14 11:47:01;;;;;;;5.55;1.70;;;16.60;62.70;;;;;;5074647;28;20083;-81
2021/10/14 11:49:28;;;;;;;7.72;1.60;;;16.70;62.60;;;;;;5074565;28;20570;-80
2021/10/14 11:52:00;;;;;;;5.47;1.40;;;16.70;62.60;;;;;;5074093;28;20101;-80
2021/10/14 11:54:30;;;;;;;5.30;1.48;;;16.70;62.50;;;;;;5071969;28;20134;-81
2021/10/14 11:56:58;;;;;;;6.53;1.25;;;16.80;62.40;;;;;;5072335;28;20045;-80
2021/10/14 11:59:27;;;;;;;4.85;1.40;;;16.80;62.30;;;;;;5075599;28;20052;-80
2021/10/14 12:01:56;;;;;;;5.78;1.65;;;16.80;62.30;;;;;;5073020;28;20074;-80
2021/10/14 12:04:34;;;;;;;3.17;1.08;;;16.80;62.20;;;;;;5073559;28;20410;-80
2021/10/14 12:07:02;;;;;;;5.68;1.30;;;16.90;62.20;;;;;;5073433;28;20105;-81
2021/10/14 12:09:38;;;;;;;4.45;1.25;;;16.90;62.10;;;;;;5072217;28;20051;-81
2021/10/14 12:12:05;;;;;;;5.40;1.50;;;16.90;62.00;;;;;;5069838;28;20048;-81
2021/10/14 12:14:35;;;;;;;4.88;1.60;;;17.00;61.90;;;;;;5077264;28;20094;-81
2021/10/14 12:17:06;;;;;;;3.97;1.40;;;17.10;61.80;;;;;;5072935;28;20044;-81
2021/10/14 12:19:45;;;;;;;6.47;1.92;;;17.10;61.70;;;;;;5073170;28;20049;-80
2021/10/14 12:22:21;;;;;;;5.75;1.60;;;17.20;61.50;;;;;;5073167;28;20497;-80
2021/10/14 12:24:54;;;;;;;6.43;1.70;;;17.20;61.30;;;;;;5071702;28;20101;-80
2021/10/14 12:27:22;;;;;;;5.25;1.83;;;17.30;61.10;;;;;;5070127;28;20451;-81
2021/10/14 12:29:50;;;;;;;6.50;1.58;;;17.40;61.00;;;;;;5073018;28;20044;-80
2021/10/14 12:32:22;;;;;;;4.15;1.65;;;17.40;60.90;;;;;;5074801;28;20041;-81
2021/10/14 12:34:52;;;;;;;3.72;1.55;;;17.40;60.70;;;;;;5072997;28;20067;-80
2021/10/14 12:37:28;;;;;;;7.38;1.80;;;17.40;60.60;;;;;;5072637;28;20044;-80
2021/10/14 12:40:22;;;;;;;5.03;1.65;;;17.50;60.50;;;;;;5072698;28;20048;-80
2021/10/14 12:51:10;;;;;;;4.97;1.70;;;17.70;59.50;;;;;;5072162;28;20118;-81
2021/10/14 12:53:38;;;;;;;5.30;1.65;;;17.80;59.50;;;;;;5084415;28;20048;-80
2021/10/14 12:56:05;;;;;;;5.97;1.67;;;17.80;59.40;;;;;;5074416;28;20052;-80
2021/10/14 12:58:32;;;;;;;3.90;1.50;;;17.90;59.20;;;;;;5072328;28;20040;-81
2021/10/14 13:01:07;;;;;;;4.13;1.60;;;17.90;59.10;;;;;;5071999;28;20055;-80
2021/10/14 13:03:34;;;;;;;3.72;1.52;;;17.90;59.00;;;;;;5071230;28;20504;-81
2021/10/14 13:06:03;;;;;;;5.93;1.55;;;17.90;58.90;;;;;;5069901;28;20132;-81
2021/10/14 13:08:35;;;;;;;7.05;1.63;;;18.00;58.70;;;;;;5075736;28;20525;-81